createdAt,value
2023-04-20T00:02:17.609Z,1.23
2023-04-20T00:04:44.293Z,1.83
2023-04-20T00:07:11.692Z,1.73
2023-04-20T00:09:38.581Z,1.60
2023-04-20T00:12:05.437Z,1.20
2023-04-20T00:14:32.128Z,1.57
2023-04-20T00:16:58.817Z,1.60
2023-04-20T00:19:28.235Z,1.60
2023-04-20T00:21:54.972Z,1.87
2023-04-20T00:24:21.871Z,2.57
2023-04-20T00:26:48.489Z,1.83
2023-04-20T00:29:15.342Z,1.57
2023-04-20T00:31:42.515Z,1.90
2023-04-20T00:34:09.146Z,1.53
2023-04-20T00:36:35.834Z,1.83
2023-04-20T00:39:02.513Z,1.63
2023-04-20T00:41:29.145Z,1.20
2023-04-20T00:43:56.000Z,2.00
2023-04-20T00:46:22.760Z,1.93
2023-04-20T00:48:54.085Z,2.40
2023-04-20T00:51:23.845Z,1.90
2023-04-20T00:53:50.556Z,1.20
2023-04-20T00:56:17.551Z,2.17
2023-04-20T00:58:44.228Z,1.83
2023-04-20T01:01:12.178Z,1.60
2023-04-20T01:03:42.429Z,2.20
2023-04-20T01:06:09.883Z,2.03
2023-04-20T01:08:36.783Z,1.70
2023-04-20T01:11:03.391Z,1.63
2023-04-20T01:13:30.437Z,2.10
2023-04-20T01:16:00.579Z,1.73
2023-04-20T01:18:27.727Z,1.67
2023-04-20T01:20:54.379Z,1.67
2023-04-20T01:23:21.395Z,1.80
2023-04-20T01:25:48.408Z,1.57
2023-04-20T01:28:15.104Z,2.00
2023-04-20T01:30:42.199Z,1.97
2023-04-20T01:33:08.941Z,1.70
2023-04-20T01:35:36.324Z,2.20
2023-04-20T01:38:03.028Z,2.17
2023-04-20T01:40:29.654Z,2.70
2023-04-20T01:42:56.314Z,1.80
2023-04-20T01:45:22.949Z,1.70
2023-04-20T01:47:49.531Z,2.17
2023-04-20T01:50:16.253Z,1.97
2023-04-20T01:52:42.858Z,1.90
2023-04-20T01:55:11.592Z,1.67
2023-04-20T01:57:38.232Z,1.80
2023-04-20T02:00:05.700Z,2.20
2023-04-20T02:02:32.420Z,1.73
2023-04-20T02:04:59.129Z,1.90
2023-04-20T02:07:25.735Z,2.10
2023-04-20T02:09:52.344Z,2.50
2023-04-20T02:12:19.018Z,2.10
2023-04-20T02:14:45.627Z,2.07
2023-04-20T02:17:12.294Z,2.70
2023-04-20T02:19:38.983Z,2.03
2023-04-20T02:22:06.406Z,2.17
2023-04-20T02:24:33.096Z,2.23
2023-04-20T02:26:59.731Z,2.67
2023-04-20T02:29:26.336Z,1.97
2023-04-20T02:31:52.967Z,2.67
2023-04-20T02:34:19.625Z,3.53
2023-04-20T02:36:46.303Z,2.23
2023-04-20T02:39:13.191Z,2.00
2023-04-20T02:41:39.814Z,2.70
2023-04-20T02:44:06.446Z,2.57
2023-04-20T02:46:33.138Z,2.17
2023-04-20T02:49:00.696Z,2.23
2023-04-20T02:51:27.296Z,2.30
2023-04-20T02:53:53.895Z,2.87
2023-04-20T02:56:21.835Z,2.60
2023-04-20T02:58:48.639Z,2.43
2023-04-20T03:01:15.938Z,2.93
2023-04-20T03:03:42.689Z,2.60
2023-04-20T03:06:09.365Z,2.10
2023-04-20T03:08:36.311Z,3.00
2023-04-20T03:11:02.893Z,3.30
2023-04-20T03:13:29.552Z,3.00
2023-04-20T03:16:06.226Z,2.20
2023-04-20T03:18:32.977Z,3.27
2023-04-20T03:20:59.642Z,2.80
2023-04-20T03:23:26.276Z,2.40
2023-04-20T03:25:52.915Z,2.90
2023-04-20T03:28:19.962Z,2.20
2023-04-20T03:30:46.673Z,2.80
2023-04-20T03:33:13.389Z,2.90
2023-04-20T03:35:40.212Z,2.50
2023-04-20T03:38:06.860Z,2.80
2023-04-20T03:40:33.482Z,2.57
2023-04-20T03:43:00.166Z,3.00
2023-04-20T03:45:26.825Z,3.57
2023-04-20T03:47:53.553Z,3.10
2023-04-20T03:50:20.345Z,2.90
2023-04-20T03:52:46.984Z,3.70
2023-04-20T03:55:13.598Z,2.67
2023-04-20T03:57:40.182Z,2.20
2023-04-20T04:00:07.489Z,3.47
2023-04-20T04:02:37.572Z,4.00
2023-04-20T04:05:05.300Z,3.83
2023-04-20T04:07:32.022Z,3.47
2023-04-20T04:09:58.730Z,3.00
2023-04-20T04:12:25.334Z,3.20
2023-04-20T04:14:51.937Z,3.53
2023-04-20T04:17:18.548Z,3.60
2023-04-20T04:19:45.292Z,3.53
2023-04-20T04:22:11.928Z,3.40
2023-04-20T04:24:38.975Z,3.73
2023-04-20T04:27:06.021Z,3.10
2023-04-20T04:29:35.775Z,2.90
2023-04-20T04:32:04.171Z,3.33
2023-04-20T04:34:33.714Z,3.80
2023-04-20T04:37:01.709Z,3.80
2023-04-20T04:39:28.497Z,3.60
2023-04-20T04:41:55.589Z,3.90
2023-04-20T04:44:22.249Z,3.30
2023-04-20T04:46:49.023Z,3.17
2023-04-20T04:49:16.216Z,4.10
2023-04-20T04:51:43.029Z,3.90
2023-04-20T04:54:09.620Z,3.90
2023-04-20T04:56:36.268Z,3.60
2023-04-20T04:59:03.002Z,3.93
2023-04-20T05:01:29.595Z,4.03
2023-04-20T05:03:56.326Z,4.43
2023-04-20T05:06:23.104Z,4.60
2023-04-20T05:08:49.946Z,3.87
2023-04-20T05:11:16.556Z,3.60
2023-04-20T05:13:43.194Z,3.97
2023-04-20T05:16:09.917Z,3.83
2023-04-20T05:18:36.559Z,3.63
2023-04-20T05:21:03.344Z,4.53
2023-04-20T05:23:30.004Z,3.73
2023-04-20T05:25:56.820Z,4.87
2023-04-20T05:28:23.444Z,3.70
2023-04-20T05:30:50.349Z,5.10
2023-04-20T05:33:17.021Z,4.60
2023-04-20T05:35:43.680Z,5.40
2023-04-20T05:38:10.297Z,5.40
2023-04-20T05:40:37.252Z,5.20
2023-04-20T05:43:03.911Z,4.57
2023-04-20T05:45:30.730Z,4.83
2023-04-20T05:47:57.786Z,4.73
2023-04-20T05:50:25.693Z,4.03
2023-04-20T05:52:53.031Z,4.60
2023-04-20T05:55:22.409Z,5.83
2023-04-20T05:57:51.700Z,5.80
2023-04-20T06:00:18.811Z,5.50
2023-04-20T06:02:45.616Z,6.10
2023-04-20T06:05:12.646Z,4.40
2023-04-20T06:07:39.554Z,5.63
2023-04-20T06:10:08.259Z,6.03
2023-04-20T06:12:35.216Z,5.00
2023-04-20T06:15:01.948Z,5.17
2023-04-20T06:17:28.558Z,5.43
2023-04-20T06:19:55.411Z,5.30
2023-04-20T06:22:22.120Z,5.87
2023-04-20T06:24:48.784Z,6.27
2023-04-20T06:27:16.051Z,6.07
2023-04-20T06:29:42.681Z,4.57
2023-04-20T06:32:09.383Z,4.80
2023-04-20T06:34:36.027Z,4.60
2023-04-20T06:37:02.678Z,6.30
2023-04-20T06:39:29.411Z,4.27
2023-04-20T06:41:56.732Z,5.20
2023-04-20T06:44:23.364Z,5.10
2023-04-20T06:46:50.025Z,6.13
2023-04-20T06:49:16.939Z,5.53
2023-04-20T06:51:43.752Z,4.80
2023-04-20T06:54:10.405Z,5.47
2023-04-20T06:56:37.056Z,5.97
2023-04-20T06:59:03.669Z,5.93
2023-04-20T07:01:30.795Z,5.17
2023-04-20T07:03:57.690Z,6.30
2023-04-20T07:06:25.390Z,4.87
2023-04-20T07:08:52.000Z,5.67
2023-04-20T07:11:18.644Z,5.50
2023-04-20T07:13:45.510Z,4.87
2023-04-20T07:16:12.202Z,5.60
2023-04-20T07:18:38.940Z,5.77
2023-04-20T07:21:05.660Z,6.57
2023-04-20T07:23:32.281Z,6.50
2023-04-20T07:25:59.021Z,5.37
2023-04-20T07:28:26.093Z,5.67
2023-04-20T07:30:52.934Z,5.70
2023-04-20T07:33:21.029Z,6.20
2023-04-20T07:35:47.641Z,5.63
2023-04-20T07:38:15.266Z,6.23
2023-04-20T07:40:41.892Z,5.50
2023-04-20T07:43:08.560Z,6.17
2023-04-20T07:45:35.336Z,4.60
2023-04-20T07:48:02.523Z,8.07
2023-04-20T07:50:29.260Z,7.07
2023-04-20T07:52:55.888Z,6.67
2023-04-20T07:55:22.649Z,5.47
2023-04-20T07:57:49.272Z,5.80
2023-04-20T08:00:16.244Z,6.43
2023-04-20T08:02:43.029Z,5.27
2023-04-20T08:05:10.423Z,6.10
2023-04-20T08:07:37.652Z,5.87
2023-04-20T08:10:05.675Z,6.50
2023-04-20T08:12:32.362Z,9.30
2023-04-20T08:15:01.836Z,6.63
2023-04-20T08:17:28.615Z,7.40
2023-04-20T08:19:55.274Z,6.70
2023-04-20T08:22:21.895Z,6.90
2023-04-20T08:24:48.512Z,6.37
2023-04-20T08:27:15.442Z,5.40
2023-04-20T08:29:42.023Z,8.10
2023-04-20T08:32:09.190Z,6.20
2023-04-20T08:34:36.314Z,6.83
2023-04-20T08:37:03.650Z,6.13
2023-04-20T08:39:30.448Z,6.80
2023-04-20T08:41:57.454Z,5.20
2023-04-20T08:44:24.696Z,10.00
2023-04-20T08:46:51.748Z,7.60
2023-04-20T08:49:19.830Z,8.00
2023-04-20T08:51:47.677Z,6.40
2023-04-20T08:54:14.863Z,6.17
2023-04-20T08:56:44.058Z,6.80
2023-04-20T08:59:11.180Z,5.90
2023-04-20T09:01:41.915Z,5.90
2023-04-20T09:04:21.994Z,7.17
2023-04-20T09:06:51.257Z,6.40
2023-04-20T09:09:19.537Z,5.97
2023-04-20T09:11:46.937Z,6.70
2023-04-20T09:14:18.787Z,6.60
2023-04-20T09:16:51.130Z,6.20
2023-04-20T09:19:24.847Z,7.10
2023-04-20T09:21:54.187Z,6.90
2023-04-20T09:24:22.185Z,6.77
2023-04-20T09:26:49.095Z,6.30
2023-04-20T09:29:20.771Z,6.23
2023-04-20T09:31:48.268Z,7.40
2023-04-20T09:34:15.753Z,6.40
2023-04-20T09:36:45.991Z,9.07
2023-04-20T09:39:19.740Z,6.00
2023-04-20T09:41:47.139Z,6.20
2023-04-20T09:44:15.544Z,5.70
2023-04-20T09:46:43.352Z,7.63
2023-04-20T09:49:12.548Z,6.60
2023-04-20T09:51:41.802Z,6.37
2023-04-20T09:54:08.890Z,6.50
2023-04-20T09:56:36.109Z,7.33
2023-04-20T09:59:04.114Z,6.30
2023-04-20T10:01:34.458Z,6.93
2023-04-20T10:04:03.422Z,7.03
2023-04-20T10:06:32.769Z,7.00
2023-04-20T10:09:01.773Z,6.50
2023-04-20T10:11:37.459Z,6.93
2023-04-20T10:14:18.805Z,7.43
2023-04-20T10:16:46.851Z,10.47
2023-04-20T10:19:13.644Z,6.73
2023-04-20T10:21:50.998Z,6.67
2023-04-20T10:24:31.156Z,7.30
2023-04-20T10:26:58.735Z,6.03
2023-04-20T10:29:26.845Z,7.70
2023-04-20T10:31:54.768Z,5.20
2023-04-20T10:34:32.309Z,7.90
2023-04-20T10:37:13.492Z,7.93
2023-04-20T10:39:47.123Z,6.80
2023-04-20T10:42:16.085Z,6.70
2023-04-20T10:44:51.690Z,5.70
2023-04-20T10:47:26.968Z,7.27
2023-04-20T10:49:53.643Z,7.90
2023-04-20T10:52:33.763Z,6.20
2023-04-20T10:55:00.501Z,6.73
2023-04-20T10:57:27.089Z,7.70
2023-04-20T10:59:53.782Z,6.40
2023-04-20T11:02:20.950Z,6.87
2023-04-20T11:04:47.848Z,6.10
2023-04-20T11:07:14.452Z,6.00
2023-04-20T11:09:42.933Z,7.37
2023-04-20T11:12:14.766Z,7.03
2023-04-20T11:14:57.933Z,8.37
2023-04-20T11:17:35.281Z,6.60
2023-04-20T11:20:10.897Z,6.80
2023-04-20T11:22:39.368Z,7.80
2023-04-20T11:25:07.850Z,6.03
2023-04-20T11:27:35.860Z,11.07
2023-04-20T11:30:05.682Z,6.13
2023-04-20T11:32:33.612Z,7.10
2023-04-20T11:35:07.689Z,7.50
2023-04-20T11:37:46.280Z,7.40
2023-04-20T11:40:13.355Z,8.10
2023-04-20T11:42:39.968Z,8.63
2023-04-20T11:45:07.262Z,7.60
2023-04-20T11:47:34.075Z,8.83
2023-04-20T11:50:01.318Z,8.17
2023-04-20T11:52:27.975Z,7.70
2023-04-20T11:54:54.562Z,7.70
2023-04-20T11:57:23.792Z,7.57
2023-04-20T11:59:50.541Z,7.80
2023-04-20T12:02:17.209Z,7.67
2023-04-20T12:04:44.196Z,7.80
2023-04-20T12:07:11.066Z,7.80
2023-04-20T12:09:38.800Z,7.30
2023-04-20T12:12:06.249Z,8.40
2023-04-20T12:14:34.485Z,9.70
2023-04-20T12:17:02.023Z,8.60
2023-04-20T12:19:28.672Z,8.20
2023-04-20T12:21:56.356Z,7.57
2023-04-20T12:24:23.734Z,9.23
2023-04-20T12:26:50.471Z,8.40
2023-04-20T12:29:17.453Z,10.33
2023-04-20T12:31:44.331Z,8.23
2023-04-20T12:34:11.060Z,8.93
2023-04-20T12:36:37.903Z,8.97
2023-04-20T12:39:04.648Z,9.40
2023-04-20T12:41:31.474Z,9.33
2023-04-20T12:43:58.025Z,9.37
2023-04-20T12:46:25.516Z,8.30
2023-04-20T12:48:52.246Z,9.10
2023-04-20T12:51:18.895Z,8.50
2023-04-20T12:53:45.657Z,9.20
2023-04-20T12:56:12.308Z,10.60
2023-04-20T12:58:38.924Z,9.40
2023-04-20T13:01:05.899Z,10.07
2023-04-20T13:03:32.814Z,9.83
2023-04-20T13:06:00.250Z,9.13
2023-04-20T13:08:26.946Z,9.90
2023-04-20T13:10:53.584Z,10.30
2023-04-20T13:13:20.211Z,8.80
2023-04-20T13:15:47.130Z,9.27
2023-04-20T13:18:15.377Z,8.53
2023-04-20T13:20:42.046Z,8.57
2023-04-20T13:23:08.681Z,10.30
2023-04-20T13:25:35.396Z,10.30
2023-04-20T13:28:03.249Z,9.23
2023-04-20T13:30:30.259Z,9.90
2023-04-20T13:32:56.988Z,9.70
2023-04-20T13:35:24.420Z,10.73
2023-04-20T13:37:51.335Z,9.80
2023-04-20T13:40:18.089Z,9.63
2023-04-20T13:42:44.803Z,9.93
2023-04-20T13:45:12.070Z,10.33
2023-04-20T13:47:39.594Z,9.57
2023-04-20T13:50:07.413Z,9.87
2023-04-20T13:52:34.208Z,9.50
2023-04-20T13:55:00.812Z,18.93
2023-04-20T13:57:27.490Z,10.27
2023-04-20T13:59:54.188Z,9.77
2023-04-20T14:02:20.892Z,9.10
2023-04-20T14:04:47.628Z,10.13
2023-04-20T14:07:14.321Z,10.50
2023-04-20T14:09:40.932Z,10.13
2023-04-20T14:12:07.628Z,10.70
2023-04-20T14:14:34.384Z,8.77
2023-04-20T14:17:01.953Z,10.30
2023-04-20T14:19:28.630Z,10.13
2023-04-20T14:21:55.232Z,11.40
2023-04-20T14:24:21.840Z,11.00
2023-04-20T14:26:48.485Z,11.43
2023-04-20T14:29:15.689Z,11.10
2023-04-20T14:31:42.323Z,12.47
2023-04-20T14:34:09.496Z,10.50
2023-04-20T14:36:36.116Z,11.60
2023-04-20T14:39:02.755Z,11.43
2023-04-20T14:41:30.704Z,12.40
2023-04-20T14:43:58.945Z,11.20
2023-04-20T14:46:25.621Z,11.73
2023-04-20T14:48:52.262Z,10.40
2023-04-20T14:51:20.739Z,11.30
2023-04-20T14:53:47.363Z,11.17
2023-04-20T14:56:14.007Z,11.50
2023-04-20T14:58:42.274Z,10.60
2023-04-20T15:01:08.948Z,11.30
2023-04-20T15:03:35.777Z,10.23
2023-04-20T15:06:03.529Z,10.20
2023-04-20T15:08:30.678Z,9.07
2023-04-20T15:10:57.440Z,12.33
2023-04-20T15:13:24.974Z,9.57
2023-04-20T15:15:54.751Z,11.57
2023-04-20T15:18:21.990Z,10.27
2023-04-20T15:20:52.262Z,11.30
2023-04-20T15:23:18.969Z,10.23
2023-04-20T15:25:45.652Z,10.80
2023-04-20T15:28:12.546Z,9.80
2023-04-20T15:30:39.141Z,9.10
2023-04-20T15:33:06.022Z,9.70
2023-04-20T15:35:34.728Z,9.70
2023-04-20T15:38:01.532Z,8.57
2023-04-20T15:40:28.247Z,10.10
2023-04-20T15:42:55.741Z,8.77
2023-04-20T15:45:23.078Z,9.67
2023-04-20T15:47:49.899Z,7.70
2023-04-20T15:50:17.094Z,9.03
2023-04-20T15:52:43.991Z,8.40
2023-04-20T15:55:11.069Z,7.77
2023-04-20T15:57:37.695Z,7.47
2023-04-20T16:00:04.883Z,8.60
2023-04-20T16:02:31.674Z,8.83
2023-04-20T16:04:58.596Z,7.77
2023-04-20T16:07:25.381Z,7.87
2023-04-20T16:09:52.002Z,7.60
2023-04-20T16:12:18.620Z,8.80
2023-04-20T16:14:45.270Z,7.43
2023-04-20T16:17:11.979Z,7.63
2023-04-20T16:19:38.602Z,8.37
2023-04-20T16:22:05.207Z,9.30
2023-04-20T16:24:31.827Z,8.13
2023-04-20T16:27:01.412Z,8.53
2023-04-20T16:29:28.407Z,8.40
2023-04-20T16:31:55.126Z,7.63
2023-04-20T16:34:22.017Z,7.80
2023-04-20T16:36:50.180Z,7.80
2023-04-20T16:39:18.571Z,7.80
2023-04-20T16:41:45.482Z,9.93
2023-04-20T16:44:16.329Z,8.27
2023-04-20T16:46:44.086Z,7.30
2023-04-20T16:49:10.780Z,8.20
2023-04-20T16:51:37.502Z,8.13
2023-04-20T16:54:04.363Z,7.67
2023-04-20T16:56:30.978Z,7.80
2023-04-20T16:58:58.141Z,8.83
2023-04-20T17:01:25.184Z,8.50
2023-04-20T17:03:52.055Z,7.80
2023-04-20T17:06:18.723Z,12.40
2023-04-20T17:08:45.420Z,9.33
2023-04-20T17:11:12.336Z,7.70
2023-04-20T17:13:39.017Z,8.83
2023-04-20T17:16:05.703Z,8.03
2023-04-20T17:18:34.224Z,9.37
2023-04-20T17:21:01.944Z,8.87
2023-04-20T17:23:28.654Z,6.87
2023-04-20T17:25:55.545Z,8.17
2023-04-20T17:28:22.203Z,9.07
2023-04-20T17:30:48.791Z,7.37
2023-04-20T17:33:15.766Z,7.63
2023-04-20T17:35:42.977Z,7.70
2023-04-20T17:38:09.624Z,7.60
2023-04-20T17:40:36.335Z,8.23
2023-04-20T17:43:03.010Z,8.37
2023-04-20T17:45:29.645Z,7.90
2023-04-20T17:47:56.440Z,7.73
2023-04-20T17:50:23.347Z,8.60
2023-04-20T17:52:51.477Z,9.30
2023-04-20T17:55:18.303Z,8.30
2023-04-20T17:57:44.973Z,9.33
2023-04-20T18:00:12.044Z,9.47
2023-04-20T18:02:39.709Z,7.77
2023-04-20T18:05:06.973Z,7.63
2023-04-20T18:07:33.801Z,8.23
2023-04-20T18:10:00.445Z,7.00
2023-04-20T18:12:27.236Z,7.63
2023-04-20T18:14:53.929Z,8.93
2023-04-20T18:17:20.653Z,8.40
2023-04-20T18:19:47.351Z,7.60
2023-04-20T18:22:14.371Z,8.50
2023-04-20T18:24:40.967Z,8.03
2023-04-20T18:27:07.610Z,7.93
2023-04-20T18:29:34.478Z,8.10
2023-04-20T18:32:01.407Z,8.20
2023-04-20T18:34:31.013Z,7.33
2023-04-20T18:36:58.237Z,6.23
2023-04-20T18:39:25.634Z,8.10
2023-04-20T18:41:52.266Z,8.00
2023-04-20T18:44:19.041Z,8.53
2023-04-20T18:46:46.579Z,9.67
2023-04-20T18:49:13.371Z,9.60
2023-04-20T18:51:40.150Z,8.63
2023-04-20T18:54:07.005Z,7.60
2023-04-20T18:56:33.712Z,9.60
2023-04-20T18:59:01.425Z,8.87
2023-04-20T19:01:28.387Z,9.97
2023-04-20T19:03:55.495Z,10.50
2023-04-20T19:06:22.325Z,9.50
2023-04-20T19:08:50.633Z,9.20
2023-04-20T19:11:17.504Z,9.50
2023-04-20T19:13:45.298Z,7.27
2023-04-20T19:16:12.560Z,8.70
2023-04-20T19:18:39.806Z,8.60
2023-04-20T19:21:06.786Z,8.10
2023-04-20T19:23:35.656Z,8.80
2023-04-20T19:26:02.730Z,8.33
2023-04-20T19:28:30.246Z,7.57
2023-04-20T19:30:57.291Z,8.90
2023-04-20T19:33:23.945Z,9.60
2023-04-20T19:35:50.899Z,9.30
2023-04-20T19:38:18.902Z,9.13
2023-04-20T19:40:46.186Z,9.40
2023-04-20T19:43:12.909Z,8.73
2023-04-20T19:45:40.034Z,8.00
2023-04-20T19:48:06.765Z,8.60
2023-04-20T19:50:33.626Z,9.00
2023-04-20T19:53:00.608Z,7.60
2023-04-20T19:55:27.339Z,7.67
2023-04-20T19:57:53.935Z,7.50
2023-04-20T20:00:20.859Z,8.10
2023-04-20T20:02:47.643Z,8.57
2023-04-20T20:05:14.419Z,7.33
2023-04-20T20:07:41.383Z,8.00
2023-04-20T20:10:08.416Z,7.50
2023-04-20T20:12:35.094Z,7.07
2023-04-20T20:15:03.372Z,9.20
2023-04-20T20:17:30.156Z,9.00
2023-04-20T20:19:56.828Z,9.00
2023-04-20T20:22:23.502Z,8.57
2023-04-20T20:24:52.042Z,8.90
2023-04-20T20:27:18.804Z,8.40
2023-04-20T20:29:45.512Z,8.63
2023-04-20T20:32:12.162Z,8.57
2023-04-20T20:34:39.038Z,7.20
2023-04-20T20:37:05.818Z,8.33
2023-04-20T20:39:32.514Z,8.60
2023-04-20T20:41:59.603Z,9.50
2023-04-20T20:44:27.895Z,9.17
2023-04-20T20:46:54.629Z,8.90
2023-04-20T20:49:21.486Z,9.00
2023-04-20T20:51:48.109Z,9.23
2023-04-20T20:54:14.704Z,8.20
2023-04-20T20:56:41.440Z,8.33
2023-04-20T20:59:08.030Z,9.17
2023-04-20T21:01:34.648Z,10.07
2023-04-20T21:04:01.568Z,9.33
2023-04-20T21:06:28.435Z,14.90
2023-04-20T21:08:55.046Z,8.73
2023-04-20T21:11:21.802Z,8.60
2023-04-20T21:13:48.404Z,8.80
2023-04-20T21:16:15.164Z,9.20
2023-04-20T21:18:41.840Z,9.07
2023-04-20T21:21:16.392Z,10.10
2023-04-20T21:23:43.054Z,9.57
2023-04-20T21:26:09.650Z,10.20
2023-04-20T21:28:36.232Z,9.73
2023-04-20T21:31:03.161Z,10.47
2023-04-20T21:33:29.866Z,10.10
2023-04-20T21:35:58.844Z,10.43
2023-04-20T21:38:25.776Z,10.93
2023-04-20T21:40:52.414Z,11.23
2023-04-20T21:43:19.058Z,10.93
2023-04-20T21:45:45.681Z,11.53
2023-04-20T21:48:12.401Z,11.50
2023-04-20T21:50:39.173Z,11.50
2023-04-20T21:53:05.896Z,11.03
2023-04-20T21:55:32.584Z,11.00
2023-04-20T21:57:59.186Z,11.40
2023-04-20T22:00:25.783Z,10.83
2023-04-20T22:02:52.496Z,10.67
2023-04-20T22:05:19.295Z,9.70
2023-04-20T22:07:46.707Z,12.00
2023-04-20T22:10:13.372Z,10.10
2023-04-20T22:12:42.281Z,10.60
2023-04-20T22:15:13.805Z,10.57
2023-04-20T22:17:41.454Z,10.77
2023-04-20T22:20:10.191Z,10.43
2023-04-20T22:22:38.224Z,10.07
2023-04-20T22:25:06.433Z,8.80
2023-04-20T22:27:34.080Z,10.60
2023-04-20T22:30:00.789Z,12.97
2023-04-20T22:32:27.815Z,11.20
2023-04-20T22:34:54.496Z,8.60
2023-04-20T22:37:21.118Z,11.30
2023-04-20T22:39:47.758Z,9.80
2023-04-20T22:42:14.406Z,10.93
2023-04-20T22:44:41.073Z,12.30
2023-04-20T22:47:07.769Z,12.30
2023-04-20T22:49:34.965Z,11.77
2023-04-20T22:52:01.722Z,11.00
2023-04-20T22:54:28.354Z,14.90
2023-04-20T22:56:54.951Z,13.30
2023-04-20T22:59:21.712Z,10.20
2023-04-20T23:01:48.486Z,11.13
2023-04-20T23:04:15.134Z,11.60
2023-04-20T23:06:43.886Z,11.00
2023-04-20T23:09:12.405Z,11.20
2023-04-20T23:11:39.806Z,10.43
2023-04-20T23:14:07.555Z,10.57
2023-04-20T23:16:34.888Z,10.57
2023-04-20T23:19:01.852Z,10.17
2023-04-20T23:21:28.861Z,10.03
2023-04-20T23:23:58.535Z,11.53
2023-04-20T23:26:25.247Z,12.30
2023-04-20T23:28:55.673Z,9.70
2023-04-20T23:31:22.716Z,11.90
2023-04-20T23:33:49.770Z,9.90
2023-04-20T23:36:16.550Z,10.43
2023-04-20T23:38:43.694Z,9.40
2023-04-20T23:41:11.739Z,10.43
2023-04-20T23:43:39.415Z,11.50
2023-04-20T23:46:07.094Z,11.23
2023-04-20T23:48:34.633Z,9.80
2023-04-20T23:51:01.589Z,10.23
2023-04-20T23:53:28.263Z,9.80
2023-04-20T23:55:59.736Z,10.10
2023-04-20T23:58:27.721Z,9.77
